sensor_id;sensor_type;location;lat;lon;timestamp;P1;durP1;ratioP1;P2;durP2;ratioP2
41689;SDS011;27372;42.658;23.256;2023-06-04T00:01:10;13.02;;;10.32;;
41689;SDS011;27372;42.658;23.256;2023-06-04T00:03:36;13.43;;;9.93;;
41689;SDS011;27372;42.658;23.256;2023-06-04T00:06:01;13.80;;;10.60;;
41689;SDS011;27372;42.658;23.256;2023-06-04T00:08:27;13.48;;;10.25;;
41689;SDS011;27372;42.658;23.256;2023-06-04T00:10:52;13.75;;;10.65;;
41689;SDS011;27372;42.658;23.256;2023-06-04T00:13:17;15.40;;;10.98;;
41689;SDS011;27372;42.658;23.256;2023-06-04T00:15:43;13.55;;;11.63;;
41689;SDS011;27372;42.658;23.256;2023-06-04T00:18:08;14.30;;;11.68;;
41689;SDS011;27372;42.658;23.256;2023-06-04T00:20:36;14.38;;;11.73;;
41689;SDS011;27372;42.658;23.256;2023-06-04T00:23:01;13.23;;;11.25;;
41689;SDS011;27372;42.658;23.256;2023-06-04T00:25:26;13.60;;;11.13;;
41689;SDS011;27372;42.658;23.256;2023-06-04T00:27:52;15.15;;;11.50;;
41689;SDS011;27372;42.658;23.256;2023-06-04T00:30:17;13.73;;;11.70;;
41689;SDS011;27372;42.658;23.256;2023-06-04T00:32:45;17.60;;;12.30;;
41689;SDS011;27372;42.658;23.256;2023-06-04T00:35:12;17.73;;;12.23;;
41689;SDS011;27372;42.658;23.256;2023-06-04T00:37:37;17.23;;;12.25;;
41689;SDS011;27372;42.658;23.256;2023-06-04T00:40:03;15.38;;;12.45;;
41689;SDS011;27372;42.658;23.256;2023-06-04T00:42:30;16.90;;;12.18;;
41689;SDS011;27372;42.658;23.256;2023-06-04T00:45:02;16.20;;;12.15;;
41689;SDS011;27372;42.658;23.256;2023-06-04T00:47:28;15.75;;;12.38;;
41689;SDS011;27372;42.658;23.256;2023-06-04T00:49:56;15.52;;;12.35;;
41689;SDS011;27372;42.658;23.256;2023-06-04T00:52:23;13.93;;;11.00;;
41689;SDS011;27372;42.658;23.256;2023-06-04T00:54:49;16.10;;;11.77;;
41689;SDS011;27372;42.658;23.256;2023-06-04T00:57:16;15.15;;;11.93;;
41689;SDS011;27372;42.658;23.256;2023-06-04T00:59:44;14.60;;;11.23;;
41689;SDS011;27372;42.658;23.256;2023-06-04T01:02:13;12.93;;;11.32;;
41689;SDS011;27372;42.658;23.256;2023-06-04T01:04:46;13.85;;;11.70;;
41689;SDS011;27372;42.658;23.256;2023-06-04T01:07:13;14.77;;;12.13;;
41689;SDS011;27372;42.658;23.256;2023-06-04T01:09:40;15.50;;;12.10;;
41689;SDS011;27372;42.658;23.256;2023-06-04T01:12:06;16.63;;;12.35;;
41689;SDS011;27372;42.658;23.256;2023-06-04T01:14:32;16.98;;;13.25;;
41689;SDS011;27372;42.658;23.256;2023-06-04T01:25:15;16.00;;;13.40;;
41689;SDS011;27372;42.658;23.256;2023-06-04T01:27:51;14.70;;;12.93;;
41689;SDS011;27372;42.658;23.256;2023-06-04T01:30:24;17.23;;;13.07;;
41689;SDS011;27372;42.658;23.256;2023-06-04T01:32:52;15.38;;;12.27;;
41689;SDS011;27372;42.658;23.256;2023-06-04T01:35:28;16.27;;;12.38;;
41689;SDS011;27372;42.658;23.256;2023-06-04T01:37:56;17.52;;;12.40;;
41689;SDS011;27372;42.658;23.256;2023-06-04T01:40:22;17.77;;;11.85;;
41689;SDS011;27372;42.658;23.256;2023-06-04T01:42:48;13.95;;;9.80;;
41689;SDS011;27372;42.658;23.256;2023-06-04T01:45:13;17.00;;;9.32;;
41689;SDS011;27372;42.658;23.256;2023-06-04T01:47:38;11.70;;;9.18;;
41689;SDS011;27372;42.658;23.256;2023-06-04T01:50:05;10.25;;;7.93;;
41689;SDS011;27372;42.658;23.256;2023-06-04T01:52:34;11.13;;;7.80;;
41689;SDS011;27372;42.658;23.256;2023-06-04T01:55:08;11.07;;;7.93;;
41689;SDS011;27372;42.658;23.256;2023-06-04T01:57:37;10.05;;;7.63;;
41689;SDS011;27372;42.658;23.256;2023-06-04T02:00:15;9.52;;;6.97;;
41689;SDS011;27372;42.658;23.256;2023-06-04T02:02:41;9.50;;;7.10;;
41689;SDS011;27372;42.658;23.256;2023-06-04T02:05:09;8.40;;;6.10;;
41689;SDS011;27372;42.658;23.256;2023-06-04T02:07:39;10.80;;;6.25;;
41689;SDS011;27372;42.658;23.256;2023-06-04T02:10:12;8.52;;;6.30;;
41689;SDS011;27372;42.658;23.256;2023-06-04T02:12:59;9.40;;;7.13;;
41689;SDS011;27372;42.658;23.256;2023-06-04T02:15:29;8.70;;;7.60;;
41689;SDS011;27372;42.658;23.256;2023-06-04T02:17:57;10.65;;;8.50;;
41689;SDS011;27372;42.658;23.256;2023-06-04T02:20:24;11.55;;;8.63;;
41689;SDS011;27372;42.658;23.256;2023-06-04T02:22:57;17.45;;;8.73;;
41689;SDS011;27372;42.658;23.256;2023-06-04T02:25:23;11.40;;;9.32;;
41689;SDS011;27372;42.658;23.256;2023-06-04T02:27:48;12.35;;;9.00;;
41689;SDS011;27372;42.658;23.256;2023-06-04T02:30:14;10.45;;;8.85;;
41689;SDS011;27372;42.658;23.256;2023-06-04T02:32:42;9.73;;;8.57;;
41689;SDS011;27372;42.658;23.256;2023-06-04T02:35:12;10.75;;;6.97;;
41689;SDS011;27372;42.658;23.256;2023-06-04T02:37:37;7.05;;;5.97;;
41689;SDS011;27372;42.658;23.256;2023-06-04T02:40:04;8.20;;;5.50;;
41689;SDS011;27372;42.658;23.256;2023-06-04T02:42:31;5.82;;;4.97;;
41689;SDS011;27372;42.658;23.256;2023-06-04T02:44:57;5.43;;;4.38;;
41689;SDS011;27372;42.658;23.256;2023-06-04T02:47:22;5.75;;;4.20;;
41689;SDS011;27372;42.658;23.256;2023-06-04T02:49:47;7.18;;;4.30;;
41689;SDS011;27372;42.658;23.256;2023-06-04T02:52:13;5.38;;;4.00;;
41689;SDS011;27372;42.658;23.256;2023-06-04T02:54:38;8.18;;;4.40;;
41689;SDS011;27372;42.658;23.256;2023-06-04T02:57:04;7.78;;;4.63;;
41689;SDS011;27372;42.658;23.256;2023-06-04T02:59:29;6.03;;;4.38;;
41689;SDS011;27372;42.658;23.256;2023-06-04T03:01:54;5.38;;;4.18;;
41689;SDS011;27372;42.658;23.256;2023-06-04T03:04:23;6.20;;;4.10;;
41689;SDS011;27372;42.658;23.256;2023-06-04T03:06:48;6.82;;;4.45;;
41689;SDS011;27372;42.658;23.256;2023-06-04T03:09:23;4.07;;;3.67;;
41689;SDS011;27372;42.658;23.256;2023-06-04T03:11:48;5.22;;;3.95;;
41689;SDS011;27372;42.658;23.256;2023-06-04T03:14:14;5.05;;;4.20;;
41689;SDS011;27372;42.658;23.256;2023-06-04T03:16:39;7.50;;;3.88;;
41689;SDS011;27372;42.658;23.256;2023-06-04T03:19:04;8.75;;;4.00;;
41689;SDS011;27372;42.658;23.256;2023-06-04T03:21:33;4.95;;;3.80;;
41689;SDS011;27372;42.658;23.256;2023-06-04T03:23:59;4.45;;;4.00;;
41689;SDS011;27372;42.658;23.256;2023-06-04T03:26:27;4.53;;;3.92;;
41689;SDS011;27372;42.658;23.256;2023-06-04T03:28:52;5.67;;;3.70;;
41689;SDS011;27372;42.658;23.256;2023-06-04T03:31:18;5.80;;;3.72;;
41689;SDS011;27372;42.658;23.256;2023-06-04T03:33:46;4.55;;;3.75;;
41689;SDS011;27372;42.658;23.256;2023-06-04T03:36:11;5.35;;;3.25;;
41689;SDS011;27372;42.658;23.256;2023-06-04T03:38:37;3.92;;;3.38;;
41689;SDS011;27372;42.658;23.256;2023-06-04T03:41:02;4.65;;;3.30;;
41689;SDS011;27372;42.658;23.256;2023-06-04T03:43:31;5.85;;;3.47;;
41689;SDS011;27372;42.658;23.256;2023-06-04T03:45:56;4.32;;;3.80;;
41689;SDS011;27372;42.658;23.256;2023-06-04T03:48:31;4.93;;;3.47;;
41689;SDS011;27372;42.658;23.256;2023-06-04T03:50:56;5.68;;;3.67;;
41689;SDS011;27372;42.658;23.256;2023-06-04T03:53:21;4.25;;;3.85;;
41689;SDS011;27372;42.658;23.256;2023-06-04T03:55:47;6.82;;;4.00;;
41689;SDS011;27372;42.658;23.256;2023-06-04T03:58:15;4.50;;;4.10;;
41689;SDS011;27372;42.658;23.256;2023-06-04T04:00:40;5.13;;;3.80;;
41689;SDS011;27372;42.658;23.256;2023-06-04T04:03:06;6.30;;;3.97;;
41689;SDS011;27372;42.658;23.256;2023-06-04T04:05:34;4.72;;;3.53;;
41689;SDS011;27372;42.658;23.256;2023-06-04T04:08:00;6.05;;;4.35;;
41689;SDS011;27372;42.658;23.256;2023-06-04T04:10:26;7.53;;;4.10;;
41689;SDS011;27372;42.658;23.256;2023-06-04T04:12:51;4.15;;;3.75;;
41689;SDS011;27372;42.658;23.256;2023-06-04T04:15:18;5.18;;;4.15;;
41689;SDS011;27372;42.658;23.256;2023-06-04T04:17:43;7.78;;;4.47;;
41689;SDS011;27372;42.658;23.256;2023-06-04T04:20:09;6.68;;;4.43;;
41689;SDS011;27372;42.658;23.256;2023-06-04T04:22:39;7.35;;;4.50;;
41689;SDS011;27372;42.658;23.256;2023-06-04T04:25:06;5.07;;;4.18;;
41689;SDS011;27372;42.658;23.256;2023-06-04T04:27:32;4.90;;;4.20;;
41689;SDS011;27372;42.658;23.256;2023-06-04T04:30:00;4.68;;;4.20;;
41689;SDS011;27372;42.658;23.256;2023-06-04T04:32:25;4.85;;;4.35;;
41689;SDS011;27372;42.658;23.256;2023-06-04T04:34:52;6.22;;;4.10;;
41689;SDS011;27372;42.658;23.256;2023-06-04T04:37:19;8.48;;;4.30;;
41689;SDS011;27372;42.658;23.256;2023-06-04T04:39:46;4.90;;;4.40;;
41689;SDS011;27372;42.658;23.256;2023-06-04T04:42:12;7.22;;;4.15;;
41689;SDS011;27372;42.658;23.256;2023-06-04T04:44:37;5.32;;;4.50;;
41689;SDS011;27372;42.658;23.256;2023-06-04T04:47:03;8.32;;;4.65;;
41689;SDS011;27372;42.658;23.256;2023-06-04T04:49:31;9.48;;;4.78;;
41689;SDS011;27372;42.658;23.256;2023-06-04T04:51:57;7.22;;;4.82;;
41689;SDS011;27372;42.658;23.256;2023-06-04T04:54:22;5.90;;;4.70;;
41689;SDS011;27372;42.658;23.256;2023-06-04T04:56:47;5.22;;;4.72;;
41689;SDS011;27372;42.658;23.256;2023-06-04T04:59:13;6.43;;;4.80;;
41689;SDS011;27372;42.658;23.256;2023-06-04T05:01:41;8.30;;;4.55;;
41689;SDS011;27372;42.658;23.256;2023-06-04T05:04:06;8.88;;;5.15;;
41689;SDS011;27372;42.658;23.256;2023-06-04T05:06:31;7.93;;;5.05;;
41689;SDS011;27372;42.658;23.256;2023-06-04T05:08:57;12.00;;;5.00;;
41689;SDS011;27372;42.658;23.256;2023-06-04T05:11:22;9.43;;;4.93;;
41689;SDS011;27372;42.658;23.256;2023-06-04T05:13:48;6.65;;;5.00;;
41689;SDS011;27372;42.658;23.256;2023-06-04T05:16:13;9.10;;;5.30;;
41689;SDS011;27372;42.658;23.256;2023-06-04T05:18:39;13.43;;;5.00;;
41689;SDS011;27372;42.658;23.256;2023-06-04T05:21:09;9.27;;;4.85;;
41689;SDS011;27372;42.658;23.256;2023-06-04T05:23:37;6.20;;;5.10;;
41689;SDS011;27372;42.658;23.256;2023-06-04T05:26:03;11.32;;;5.43;;
41689;SDS011;27372;42.658;23.256;2023-06-04T05:28:29;8.68;;;5.20;;
41689;SDS011;27372;42.658;23.256;2023-06-04T05:31:08;8.98;;;5.15;;
41689;SDS011;27372;42.658;23.256;2023-06-04T05:33:34;12.55;;;5.60;;
41689;SDS011;27372;42.658;23.256;2023-06-04T05:36:01;9.02;;;5.05;;
41689;SDS011;27372;42.658;23.256;2023-06-04T05:38:27;5.45;;;4.85;;
41689;SDS011;27372;42.658;23.256;2023-06-04T05:40:55;9.02;;;5.30;;
41689;SDS011;27372;42.658;23.256;2023-06-04T05:43:21;6.05;;;5.00;;
41689;SDS011;27372;42.658;23.256;2023-06-04T05:45:47;10.82;;;5.25;;
41689;SDS011;27372;42.658;23.256;2023-06-04T05:48:13;6.93;;;5.32;;
41689;SDS011;27372;42.658;23.256;2023-06-04T05:50:39;6.07;;;5.03;;
41689;SDS011;27372;42.658;23.256;2023-06-04T05:53:05;9.63;;;5.72;;
41689;SDS011;27372;42.658;23.256;2023-06-04T05:55:30;10.25;;;5.80;;
41689;SDS011;27372;42.658;23.256;2023-06-04T05:57:55;12.15;;;5.80;;
41689;SDS011;27372;42.658;23.256;2023-06-04T06:00:21;7.05;;;5.10;;
41689;SDS011;27372;42.658;23.256;2023-06-04T06:02:48;8.48;;;5.68;;
41689;SDS011;27372;42.658;23.256;2023-06-04T06:05:15;9.95;;;6.40;;
41689;SDS011;27372;42.658;23.256;2023-06-04T06:07:41;8.82;;;5.90;;
41689;SDS011;27372;42.658;23.256;2023-06-04T06:10:07;8.93;;;5.95;;
41689;SDS011;27372;42.658;23.256;2023-06-04T06:12:33;9.65;;;6.25;;
41689;SDS011;27372;42.658;23.256;2023-06-04T06:14:58;10.00;;;6.60;;
41689;SDS011;27372;42.658;23.256;2023-06-04T06:17:27;11.15;;;6.60;;
41689;SDS011;27372;42.658;23.256;2023-06-04T06:19:53;10.32;;;6.22;;
41689;SDS011;27372;42.658;23.256;2023-06-04T06:22:19;9.60;;;7.53;;
41689;SDS011;27372;42.658;23.256;2023-06-04T06:24:44;8.98;;;7.00;;
41689;SDS011;27372;42.658;23.256;2023-06-04T06:27:10;11.48;;;7.05;;
41689;SDS011;27372;42.658;23.256;2023-06-04T06:29:35;10.90;;;7.32;;
41689;SDS011;27372;42.658;23.256;2023-06-04T06:32:02;14.35;;;7.88;;
41689;SDS011;27372;42.658;23.256;2023-06-04T06:34:27;14.23;;;7.93;;
41689;SDS011;27372;42.658;23.256;2023-06-04T06:37:00;11.93;;;8.35;;
41689;SDS011;27372;42.658;23.256;2023-06-04T06:39:26;12.93;;;8.18;;
41689;SDS011;27372;42.658;23.256;2023-06-04T06:41:51;12.32;;;8.68;;
41689;SDS011;27372;42.658;23.256;2023-06-04T06:44:17;11.60;;;7.65;;
41689;SDS011;27372;42.658;23.256;2023-06-04T06:46:42;11.45;;;8.60;;
41689;SDS011;27372;42.658;23.256;2023-06-04T06:49:08;13.50;;;8.40;;
41689;SDS011;27372;42.658;23.256;2023-06-04T06:51:33;13.25;;;8.13;;
41689;SDS011;27372;42.658;23.256;2023-06-04T06:53:59;11.90;;;8.40;;
41689;SDS011;27372;42.658;23.256;2023-06-04T06:56:24;13.88;;;7.97;;
41689;SDS011;27372;42.658;23.256;2023-06-04T06:58:50;12.48;;;8.07;;
41689;SDS011;27372;42.658;23.256;2023-06-04T07:01:16;11.30;;;7.93;;
41689;SDS011;27372;42.658;23.256;2023-06-04T07:03:41;11.48;;;8.30;;
41689;SDS011;27372;42.658;23.256;2023-06-04T07:06:07;14.02;;;7.93;;
41689;SDS011;27372;42.658;23.256;2023-06-04T07:08:32;12.63;;;7.82;;
41689;SDS011;27372;42.658;23.256;2023-06-04T07:11:01;13.20;;;7.78;;
41689;SDS011;27372;42.658;23.256;2023-06-04T07:13:28;13.00;;;7.95;;
41689;SDS011;27372;42.658;23.256;2023-06-04T07:16:00;10.70;;;7.68;;
41689;SDS011;27372;42.658;23.256;2023-06-04T07:18:25;11.48;;;7.70;;
41689;SDS011;27372;42.658;23.256;2023-06-04T07:20:51;12.52;;;8.43;;
41689;SDS011;27372;42.658;23.256;2023-06-04T07:23:17;11.38;;;7.20;;
41689;SDS011;27372;42.658;23.256;2023-06-04T07:25:43;13.60;;;7.28;;
41689;SDS011;27372;42.658;23.256;2023-06-04T07:28:08;10.68;;;7.32;;
41689;SDS011;27372;42.658;23.256;2023-06-04T07:30:34;9.65;;;7.57;;
41689;SDS011;27372;42.658;23.256;2023-06-04T07:32:59;14.10;;;7.40;;
41689;SDS011;27372;42.658;23.256;2023-06-04T07:35:25;11.13;;;7.45;;
41689;SDS011;27372;42.658;23.256;2023-06-04T07:37:50;11.18;;;7.07;;
41689;SDS011;27372;42.658;23.256;2023-06-04T07:40:16;13.30;;;7.60;;
41689;SDS011;27372;42.658;23.256;2023-06-04T07:42:42;12.55;;;7.75;;
41689;SDS011;27372;42.658;23.256;2023-06-04T07:45:10;12.32;;;7.85;;
41689;SDS011;27372;42.658;23.256;2023-06-04T07:47:36;10.95;;;7.45;;
41689;SDS011;27372;42.658;23.256;2023-06-04T07:50:04;15.17;;;8.40;;
41689;SDS011;27372;42.658;23.256;2023-06-04T07:52:31;11.98;;;9.00;;
41689;SDS011;27372;42.658;23.256;2023-06-04T07:54:56;12.23;;;8.50;;
41689;SDS011;27372;42.658;23.256;2023-06-04T07:57:22;13.48;;;8.15;;
41689;SDS011;27372;42.658;23.256;2023-06-04T07:59:48;15.00;;;8.63;;
41689;SDS011;27372;42.658;23.256;2023-06-04T08:02:13;15.52;;;8.55;;
41689;SDS011;27372;42.658;23.256;2023-06-04T08:04:39;12.07;;;8.48;;
41689;SDS011;27372;42.658;23.256;2023-06-04T08:07:05;14.95;;;9.18;;
41689;SDS011;27372;42.658;23.256;2023-06-04T08:09:30;12.10;;;8.80;;
41689;SDS011;27372;42.658;23.256;2023-06-04T08:11:56;15.50;;;9.52;;
41689;SDS011;27372;42.658;23.256;2023-06-04T08:14:21;16.42;;;8.55;;
41689;SDS011;27372;42.658;23.256;2023-06-04T08:16:47;13.40;;;9.73;;
41689;SDS011;27372;42.658;23.256;2023-06-04T08:19:12;12.68;;;9.02;;
41689;SDS011;27372;42.658;23.256;2023-06-04T08:21:38;15.85;;;10.35;;
41689;SDS011;27372;42.658;23.256;2023-06-04T08:24:05;16.33;;;10.32;;
41689;SDS011;27372;42.658;23.256;2023-06-04T08:26:31;13.07;;;9.43;;
41689;SDS011;27372;42.658;23.256;2023-06-04T08:28:57;16.75;;;11.00;;
41689;SDS011;27372;42.658;23.256;2023-06-04T08:31:22;15.32;;;10.57;;
41689;SDS011;27372;42.658;23.256;2023-06-04T08:33:48;14.93;;;10.18;;
41689;SDS011;27372;42.658;23.256;2023-06-04T08:36:14;15.15;;;10.75;;
41689;SDS011;27372;42.658;23.256;2023-06-04T08:38:41;15.10;;;9.60;;
41689;SDS011;27372;42.658;23.256;2023-06-04T08:41:11;15.45;;;10.13;;
41689;SDS011;27372;42.658;23.256;2023-06-04T08:43:40;18.50;;;12.13;;
41689;SDS011;27372;42.658;23.256;2023-06-04T08:46:09;19.38;;;12.90;;
41689;SDS011;27372;42.658;23.256;2023-06-04T08:48:35;16.60;;;12.20;;
41689;SDS011;27372;42.658;23.256;2023-06-04T08:51:02;18.60;;;11.43;;
41689;SDS011;27372;42.658;23.256;2023-06-04T08:53:33;19.65;;;12.07;;
41689;SDS011;27372;42.658;23.256;2023-06-04T08:55:59;21.17;;;11.98;;
41689;SDS011;27372;42.658;23.256;2023-06-04T08:58:25;15.98;;;11.18;;
41689;SDS011;27372;42.658;23.256;2023-06-04T09:00:53;15.65;;;10.65;;
41689;SDS011;27372;42.658;23.256;2023-06-04T09:03:18;19.23;;;10.80;;
41689;SDS011;27372;42.658;23.256;2023-06-04T09:05:48;15.85;;;10.52;;
41689;SDS011;27372;42.658;23.256;2023-06-04T09:08:16;16.52;;;9.82;;
41689;SDS011;27372;42.658;23.256;2023-06-04T09:10:43;14.85;;;10.70;;
41689;SDS011;27372;42.658;23.256;2023-06-04T09:13:11;15.07;;;10.13;;
41689;SDS011;27372;42.658;23.256;2023-06-04T09:15:40;11.68;;;9.40;;
41689;SDS011;27372;42.658;23.256;2023-06-04T09:18:05;15.32;;;9.52;;
41689;SDS011;27372;42.658;23.256;2023-06-04T09:20:31;14.93;;;9.38;;
41689;SDS011;27372;42.658;23.256;2023-06-04T09:22:57;15.15;;;9.50;;
41689;SDS011;27372;42.658;23.256;2023-06-04T09:25:24;16.13;;;9.98;;
41689;SDS011;27372;42.658;23.256;2023-06-04T09:28:05;17.40;;;10.07;;
41689;SDS011;27372;42.658;23.256;2023-06-04T09:30:31;17.25;;;10.73;;
41689;SDS011;27372;42.658;23.256;2023-06-04T09:33:06;17.20;;;11.23;;
41689;SDS011;27372;42.658;23.256;2023-06-04T09:35:32;18.10;;;10.88;;
41689;SDS011;27372;42.658;23.256;2023-06-04T09:37:57;14.68;;;10.40;;
41689;SDS011;27372;42.658;23.256;2023-06-04T09:40:23;15.35;;;9.40;;
41689;SDS011;27372;42.658;23.256;2023-06-04T09:42:50;13.38;;;8.50;;
41689;SDS011;27372;42.658;23.256;2023-06-04T09:45:35;11.27;;;8.10;;
41689;SDS011;27372;42.658;23.256;2023-06-04T09:48:01;11.27;;;7.95;;
41689;SDS011;27372;42.658;23.256;2023-06-04T09:50:29;10.68;;;8.45;;
41689;SDS011;27372;42.658;23.256;2023-06-04T09:52:59;12.93;;;8.75;;
41689;SDS011;27372;42.658;23.256;2023-06-04T09:55:25;10.82;;;8.90;;
41689;SDS011;27372;42.658;23.256;2023-06-04T09:57:52;14.10;;;9.00;;
41689;SDS011;27372;42.658;23.256;2023-06-04T10:00:22;12.43;;;8.38;;
41689;SDS011;27372;42.658;23.256;2023-06-04T10:02:49;11.98;;;8.85;;
41689;SDS011;27372;42.658;23.256;2023-06-04T10:05:16;11.45;;;8.30;;
41689;SDS011;27372;42.658;23.256;2023-06-04T10:07:44;16.20;;;8.30;;
41689;SDS011;27372;42.658;23.256;2023-06-04T10:10:23;11.82;;;8.15;;
41689;SDS011;27372;42.658;23.256;2023-06-04T10:12:55;12.95;;;9.20;;
41689;SDS011;27372;42.658;23.256;2023-06-04T10:15:32;17.52;;;10.00;;
41689;SDS011;27372;42.658;23.256;2023-06-04T10:18:01;11.80;;;9.00;;
41689;SDS011;27372;42.658;23.256;2023-06-04T10:20:28;13.10;;;9.15;;
41689;SDS011;27372;42.658;23.256;2023-06-04T10:22:54;14.75;;;9.43;;
41689;SDS011;27372;42.658;23.256;2023-06-04T10:25:20;13.32;;;9.23;;
41689;SDS011;27372;42.658;23.256;2023-06-04T10:27:46;13.43;;;8.65;;
41689;SDS011;27372;42.658;23.256;2023-06-04T10:30:12;14.00;;;8.75;;
41689;SDS011;27372;42.658;23.256;2023-06-04T10:35:09;12.23;;;8.02;;
41689;SDS011;27372;42.658;23.256;2023-06-04T10:37:35;11.02;;;8.02;;
41689;SDS011;27372;42.658;23.256;2023-06-04T10:40:03;13.38;;;8.00;;
41689;SDS011;27372;42.658;23.256;2023-06-04T10:42:40;12.32;;;8.60;;
41689;SDS011;27372;42.658;23.256;2023-06-04T10:45:07;10.40;;;7.93;;
41689;SDS011;27372;42.658;23.256;2023-06-04T10:47:33;11.32;;;8.18;;
41689;SDS011;27372;42.658;23.256;2023-06-04T10:50:12;10.68;;;8.00;;
41689;SDS011;27372;42.658;23.256;2023-06-04T10:52:49;11.98;;;8.00;;
41689;SDS011;27372;42.658;23.256;2023-06-04T10:55:16;10.43;;;7.75;;
41689;SDS011;27372;42.658;23.256;2023-06-04T10:57:50;12.82;;;8.13;;
41689;SDS011;27372;42.658;23.256;2023-06-04T11:00:33;10.45;;;7.93;;
41689;SDS011;27372;42.658;23.256;2023-06-04T11:02:59;9.73;;;8.02;;
41689;SDS011;27372;42.658;23.256;2023-06-04T11:06:26;12.00;;;8.43;;
41689;SDS011;27372;42.658;23.256;2023-06-04T11:08:32;9.82;;;8.05;;
41689;SDS011;27372;42.658;23.256;2023-06-04T11:10:58;11.27;;;7.88;;
41689;SDS011;27372;42.658;23.256;2023-06-04T11:13:24;11.40;;;7.72;;
41689;SDS011;27372;42.658;23.256;2023-06-04T11:15:52;11.85;;;7.53;;
41689;SDS011;27372;42.658;23.256;2023-06-04T11:18:19;13.15;;;8.00;;
41689;SDS011;27372;42.658;23.256;2023-06-04T11:20:46;12.02;;;8.35;;
41689;SDS011;27372;42.658;23.256;2023-06-04T11:23:13;10.02;;;7.65;;
41689;SDS011;27372;42.658;23.256;2023-06-04T11:25:39;10.43;;;7.47;;
41689;SDS011;27372;42.658;23.256;2023-06-04T11:28:07;11.43;;;7.40;;
41689;SDS011;27372;42.658;23.256;2023-06-04T11:30:40;12.07;;;7.47;;
41689;SDS011;27372;42.658;23.256;2023-06-04T11:33:08;9.63;;;7.10;;
41689;SDS011;27372;42.658;23.256;2023-06-04T11:35:41;12.98;;;6.90;;
41689;SDS011;27372;42.658;23.256;2023-06-04T11:38:09;11.27;;;6.75;;
41689;SDS011;27372;42.658;23.256;2023-06-04T11:40:35;8.73;;;6.50;;
41689;SDS011;27372;42.658;23.256;2023-06-04T11:43:00;8.13;;;6.70;;
41689;SDS011;27372;42.658;23.256;2023-06-04T11:45:27;9.40;;;6.97;;
41689;SDS011;27372;42.658;23.256;2023-06-04T11:47:55;8.35;;;6.82;;
41689;SDS011;27372;42.658;23.256;2023-06-04T11:50:27;9.02;;;6.53;;
41689;SDS011;27372;42.658;23.256;2023-06-04T11:52:53;10.63;;;7.05;;
41689;SDS011;27372;42.658;23.256;2023-06-04T11:55:19;12.55;;;7.07;;
41689;SDS011;27372;42.658;23.256;2023-06-04T11:57:51;13.10;;;7.10;;
41689;SDS011;27372;42.658;23.256;2023-06-04T12:00:17;9.63;;;6.80;;
41689;SDS011;27372;42.658;23.256;2023-06-04T12:02:54;8.43;;;7.10;;
41689;SDS011;27372;42.658;23.256;2023-06-04T12:05:22;9.07;;;6.93;;
41689;SDS011;27372;42.658;23.256;2023-06-04T12:08:03;9.30;;;7.57;;
41689;SDS011;27372;42.658;23.256;2023-06-04T12:10:40;13.30;;;8.25;;
41689;SDS011;27372;42.658;23.256;2023-06-04T12:13:07;10.25;;;7.65;;
41689;SDS011;27372;42.658;23.256;2023-06-04T12:15:33;11.63;;;8.43;;
41689;SDS011;27372;42.658;23.256;2023-06-04T12:17:59;14.02;;;8.35;;
41689;SDS011;27372;42.658;23.256;2023-06-04T12:20:34;12.65;;;8.57;;
41689;SDS011;27372;42.658;23.256;2023-06-04T12:23:01;12.05;;;9.27;;
41689;SDS011;27372;42.658;23.256;2023-06-04T12:25:31;14.40;;;9.00;;
41689;SDS011;27372;42.658;23.256;2023-06-04T12:27:57;10.32;;;8.63;;
41689;SDS011;27372;42.658;23.256;2023-06-04T12:30:37;11.60;;;9.05;;
41689;SDS011;27372;42.658;23.256;2023-06-04T12:33:03;14.93;;;9.88;;
41689;SDS011;27372;42.658;23.256;2023-06-04T12:35:33;11.02;;;9.60;;
41689;SDS011;27372;42.658;23.256;2023-06-04T12:37:59;10.82;;;9.70;;
41689;SDS011;27372;42.658;23.256;2023-06-04T12:40:25;11.63;;;10.10;;
41689;SDS011;27372;42.658;23.256;2023-06-04T12:42:54;12.60;;;9.73;;
41689;SDS011;27372;42.658;23.256;2023-06-04T12:45:19;16.02;;;10.50;;
41689;SDS011;27372;42.658;23.256;2023-06-04T12:47:45;11.85;;;9.65;;
41689;SDS011;27372;42.658;23.256;2023-06-04T12:50:17;10.80;;;9.38;;
41689;SDS011;27372;42.658;23.256;2023-06-04T12:52:43;14.65;;;10.20;;
41689;SDS011;27372;42.658;23.256;2023-06-04T12:55:08;12.20;;;9.65;;
41689;SDS011;27372;42.658;23.256;2023-06-04T12:57:34;13.25;;;9.60;;
41689;SDS011;27372;42.658;23.256;2023-06-04T13:00:04;11.93;;;9.63;;
41689;SDS011;27372;42.658;23.256;2023-06-04T13:02:30;10.90;;;9.45;;
41689;SDS011;27372;42.658;23.256;2023-06-04T13:04:55;11.65;;;9.10;;
41689;SDS011;27372;42.658;23.256;2023-06-04T13:07:21;9.95;;;8.80;;
41689;SDS011;27372;42.658;23.256;2023-06-04T13:09:47;10.02;;;8.95;;
41689;SDS011;27372;42.658;23.256;2023-06-04T13:12:13;13.30;;;9.15;;
41689;SDS011;27372;42.658;23.256;2023-06-04T13:14:41;12.63;;;9.68;;
41689;SDS011;27372;42.658;23.256;2023-06-04T13:17:07;13.30;;;10.25;;
41689;SDS011;27372;42.658;23.256;2023-06-04T13:19:35;13.27;;;9.13;;
41689;SDS011;27372;42.658;23.256;2023-06-04T13:22:00;15.70;;;10.20;;
41689;SDS011;27372;42.658;23.256;2023-06-04T13:24:26;10.48;;;9.38;;
41689;SDS011;27372;42.658;23.256;2023-06-04T13:26:51;10.10;;;9.00;;
41689;SDS011;27372;42.658;23.256;2023-06-04T13:29:16;13.00;;;9.02;;
41689;SDS011;27372;42.658;23.256;2023-06-04T13:31:47;15.38;;;9.55;;
41689;SDS011;27372;42.658;23.256;2023-06-04T13:34:12;11.30;;;8.90;;
41689;SDS011;27372;42.658;23.256;2023-06-04T13:36:39;12.43;;;9.27;;
41689;SDS011;27372;42.658;23.256;2023-06-04T13:39:04;13.68;;;8.50;;
41689;SDS011;27372;42.658;23.256;2023-06-04T13:41:30;9.40;;;8.38;;
41689;SDS011;27372;42.658;23.256;2023-06-04T13:43:55;11.18;;;8.75;;
41689;SDS011;27372;42.658;23.256;2023-06-04T13:46:20;9.30;;;8.40;;
41689;SDS011;27372;42.658;23.256;2023-06-04T13:48:46;9.63;;;8.40;;
41689;SDS011;27372;42.658;23.256;2023-06-04T13:51:14;13.88;;;8.63;;
41689;SDS011;27372;42.658;23.256;2023-06-04T13:53:43;12.35;;;8.00;;
41689;SDS011;27372;42.658;23.256;2023-06-04T13:56:08;11.13;;;8.63;;
41689;SDS011;27372;42.658;23.256;2023-06-04T13:58:37;11.98;;;7.70;;
41689;SDS011;27372;42.658;23.256;2023-06-04T14:01:02;9.57;;;7.80;;
41689;SDS011;27372;42.658;23.256;2023-06-04T14:03:28;10.82;;;7.68;;
41689;SDS011;27372;42.658;23.256;2023-06-04T14:05:56;11.98;;;7.25;;
41689;SDS011;27372;42.658;23.256;2023-06-04T14:08:24;10.65;;;8.10;;
41689;SDS011;27372;42.658;23.256;2023-06-04T14:10:50;11.93;;;7.32;;
41689;SDS011;27372;42.658;23.256;2023-06-04T14:13:17;10.85;;;7.13;;
41689;SDS011;27372;42.658;23.256;2023-06-04T14:15:48;9.07;;;7.07;;
41689;SDS011;27372;42.658;23.256;2023-06-04T14:18:14;9.05;;;7.15;;
41689;SDS011;27372;42.658;23.256;2023-06-04T14:20:39;9.30;;;7.30;;
41689;SDS011;27372;42.658;23.256;2023-06-04T14:23:05;10.10;;;7.93;;
41689;SDS011;27372;42.658;23.256;2023-06-04T14:25:30;12.32;;;8.00;;
41689;SDS011;27372;42.658;23.256;2023-06-04T14:27:59;8.50;;;7.65;;
41689;SDS011;27372;42.658;23.256;2023-06-04T14:30:32;10.70;;;7.40;;
41689;SDS011;27372;42.658;23.256;2023-06-04T14:32:57;8.73;;;7.50;;
41689;SDS011;27372;42.658;23.256;2023-06-04T14:35:23;10.95;;;7.63;;